Kezdőlap
METAR-TAF:

METAR-TAF

Repülőterek :

Greeley-Weld County Airport

Greeley, Colorado, Amerikai Egyesült Államok

földrajzi szélesség: 40-26N, földrajzi hosszúság: 104-38W, magasság: 1420 m

Jelenlegi meteorológiai megfigyelések

A jelentés 14 perccel ezelõtt készült, 18:56 UTC
Délkeleti szél 9 kt
Hőmérséklet 22°C
Páratartalom 29%
Légköri nyomás 1017 hPa
Látótávolság: 16.1 km
Derült ég

METAR: KGXY 181856Z 13009KT 10SM CLR 22/03 A3003 RMK AO2 SLP134 T02220028

Idő: 13:10 (19:10 UTC)


TAF: hiányzik

Meteorológiai megfigyelések és előrejelzések több, mint 4000 repülőtéren (METAR és TAF jelentéseket).

A térképen piros és sárga pontok jelzik az elérhető meteorológiai állomásokat.

Mozgassa az egeret a pont fölött, hogy megjelenjen az állomás neve.

Azután kattintson az időjárási megfigyelések és előrejelzések megtekintéséhez.

A térkép megváltoztatása: kattintson a fekete keresztel jelölt zöld gombra ráközelítéshez, a vonallal jelölt zöld gombra távolításhoz, vagy a zöld nyilakra a szomszédos térképek eléréséhez.


METAR-TAF: